sensor_id;sensor_type;location;lat;lon;timestamp;pressure;altitude;pressure_sealevel;temperature;humidity
79586;BME280;69054;50.866;4.636;2023-04-25T00:00:03;100790.22;;;5.97;80.67
79586;BME280;69054;50.866;4.636;2023-04-25T00:02:32;100790.38;;;5.96;80.34
79586;BME280;69054;50.866;4.636;2023-04-25T00:05:00;100787.81;;;5.94;81.34
79586;BME280;69054;50.866;4.636;2023-04-25T00:07:27;100791.69;;;5.92;80.82
79586;BME280;69054;50.866;4.636;2023-04-25T00:09:52;100786.28;;;5.92;81.19
79586;BME280;69054;50.866;4.636;2023-04-25T00:12:18;100789.00;;;5.92;80.85
79586;BME280;69054;50.866;4.636;2023-04-25T00:14:43;100790.69;;;5.93;80.65
79586;BME280;69054;50.866;4.636;2023-04-25T00:17:10;100798.84;;;5.93;80.70
79586;BME280;69054;50.866;4.636;2023-04-25T00:19:36;100794.41;;;5.92;80.94
79586;BME280;69054;50.866;4.636;2023-04-25T00:22:03;100794.41;;;5.92;80.50
79586;BME280;69054;50.866;4.636;2023-04-25T00:24:28;100793.41;;;5.93;80.83
79586;BME280;69054;50.866;4.636;2023-04-25T00:26:54;100787.97;;;5.93;80.87
79586;BME280;69054;50.866;4.636;2023-04-25T00:29:19;100782.56;;;5.93;80.94
79586;BME280;69054;50.866;4.636;2023-04-25T00:31:45;100788.81;;;5.93;81.06
79586;BME280;69054;50.866;4.636;2023-04-25T00:34:10;100784.59;;;5.91;80.87
79586;BME280;69054;50.866;4.636;2023-04-25T00:36:36;100793.75;;;5.90;81.16
79586;BME280;69054;50.866;4.636;2023-04-25T00:39:01;100788.47;;;5.88;81.86
79586;BME280;69054;50.866;4.636;2023-04-25T00:41:28;100793.91;;;5.88;81.98
79586;BME280;69054;50.866;4.636;2023-04-25T00:43:55;100795.44;;;5.91;81.96
79586;BME280;69054;50.866;4.636;2023-04-25T00:46:22;100788.66;;;5.95;82.07
79586;BME280;69054;50.866;4.636;2023-04-25T00:48:47;100793.63;;;5.99;81.57
79586;BME280;69054;50.866;4.636;2023-04-25T00:51:15;100784.13;;;6.03;81.52
79586;BME280;69054;50.866;4.636;2023-04-25T00:53:41;100792.13;;;6.05;80.27
79586;BME280;69054;50.866;4.636;2023-04-25T00:56:07;100790.94;;;6.08;80.57
79586;BME280;69054;50.866;4.636;2023-04-25T00:58:32;100790.09;;;6.07;80.76
79586;BME280;69054;50.866;4.636;2023-04-25T01:00:59;100788.22;;;6.08;79.81
79586;BME280;69054;50.866;4.636;2023-04-25T01:03:26;100793.13;;;6.04;80.80
79586;BME280;69054;50.866;4.636;2023-04-25T01:05:54;100797.03;;;6.01;81.72
79586;BME280;69054;50.866;4.636;2023-04-25T01:08:21;100787.19;;;6.00;83.11
79586;BME280;69054;50.866;4.636;2023-04-25T01:10:48;100793.28;;;6.02;83.55
79586;BME280;69054;50.866;4.636;2023-04-25T01:13:14;100794.66;;;5.98;82.59
79586;BME280;69054;50.866;4.636;2023-04-25T01:15:39;100796.78;;;5.95;82.22
79586;BME280;69054;50.866;4.636;2023-04-25T01:18:05;100792.91;;;5.89;83.61
79586;BME280;69054;50.866;4.636;2023-04-25T01:20:33;100795.63;;;5.89;84.78
79586;BME280;69054;50.866;4.636;2023-04-25T01:22:59;100792.19;;;5.87;83.90
79586;BME280;69054;50.866;4.636;2023-04-25T01:25:25;100798.81;;;5.84;84.09
79586;BME280;69054;50.866;4.636;2023-04-25T01:27:51;100804.41;;;5.83;83.35
79586;BME280;69054;50.866;4.636;2023-04-25T01:30:17;100795.38;;;5.74;84.05
79586;BME280;69054;50.866;4.636;2023-04-25T01:32:42;100803.16;;;5.69;84.20
79586;BME280;69054;50.866;4.636;2023-04-25T01:35:10;100805.50;;;5.64;84.14
79586;BME280;69054;50.866;4.636;2023-04-25T01:37:40;100807.38;;;5.63;84.06
79586;BME280;69054;50.866;4.636;2023-04-25T01:40:08;100808.72;;;5.59;84.68
79586;BME280;69054;50.866;4.636;2023-04-25T01:42:35;100803.44;;;5.58;85.04
79586;BME280;69054;50.866;4.636;2023-04-25T01:45:01;100809.03;;;5.56;84.93
79586;BME280;69054;50.866;4.636;2023-04-25T01:47:27;100811.75;;;5.56;85.82
79586;BME280;69054;50.866;4.636;2023-04-25T01:49:52;100809.88;;;5.57;85.22
79586;BME280;69054;50.866;4.636;2023-04-25T01:52:18;100815.28;;;5.57;85.43
79586;BME280;69054;50.866;4.636;2023-04-25T01:54:43;100815.63;;;5.54;85.15
79586;BME280;69054;50.866;4.636;2023-04-25T01:57:11;100822.03;;;5.53;85.58
79586;BME280;69054;50.866;4.636;2023-04-25T01:59:36;100819.66;;;5.49;86.17
79586;BME280;69054;50.866;4.636;2023-04-25T02:02:02;100813.41;;;5.49;86.60
79586;BME280;69054;50.866;4.636;2023-04-25T02:04:32;100823.41;;;5.48;87.04
79586;BME280;69054;50.866;4.636;2023-04-25T02:06:58;100823.72;;;5.45;87.15
79586;BME280;69054;50.866;4.636;2023-04-25T02:09:23;100828.75;;;5.40;87.91
79586;BME280;69054;50.866;4.636;2023-04-25T02:11:48;100825.03;;;5.33;89.01
79586;BME280;69054;50.866;4.636;2023-04-25T02:14:14;100824.63;;;5.28;89.34
79586;BME280;69054;50.866;4.636;2023-04-25T02:16:40;100818.84;;;5.23;88.48
79586;BME280;69054;50.866;4.636;2023-04-25T02:19:06;100824.59;;;5.20;88.63
79586;BME280;69054;50.866;4.636;2023-04-25T02:21:31;100831.19;;;5.17;88.80
79586;BME280;69054;50.866;4.636;2023-04-25T02:23:57;100831.19;;;5.17;89.07
79586;BME280;69054;50.866;4.636;2023-04-25T02:26:22;100832.00;;;5.18;90.02
79586;BME280;69054;50.866;4.636;2023-04-25T02:28:49;100826.59;;;5.18;89.72
79586;BME280;69054;50.866;4.636;2023-04-25T02:31:15;100819.84;;;5.22;90.07
79586;BME280;69054;50.866;4.636;2023-04-25T02:33:41;100826.34;;;5.29;90.53
79586;BME280;69054;50.866;4.636;2023-04-25T02:36:06;100829.22;;;5.27;90.44
79586;BME280;69054;50.866;4.636;2023-04-25T02:38:32;100818.53;;;5.26;90.82
79586;BME280;69054;50.866;4.636;2023-04-25T02:40:57;100821.41;;;5.24;90.22
79586;BME280;69054;50.866;4.636;2023-04-25T02:43:24;100827.50;;;5.26;90.79
79586;BME280;69054;50.866;4.636;2023-04-25T02:45:49;100832.25;;;5.24;90.39
79586;BME280;69054;50.866;4.636;2023-04-25T02:48:15;100834.25;;;5.22;90.71
79586;BME280;69054;50.866;4.636;2023-04-25T02:50:40;100824.28;;;5.23;91.01
79586;BME280;69054;50.866;4.636;2023-04-25T02:53:05;100828.97;;;5.21;91.13
79586;BME280;69054;50.866;4.636;2023-04-25T02:55:31;100812.88;;;5.19;90.77
79586;BME280;69054;50.866;4.636;2023-04-25T02:57:56;100822.22;;;5.17;90.89
79586;BME280;69054;50.866;4.636;2023-04-25T03:00:22;100823.53;;;5.12;91.03
79586;BME280;69054;50.866;4.636;2023-04-25T03:02:48;100823.84;;;5.09;90.81
79586;BME280;69054;50.866;4.636;2023-04-25T03:05:13;100816.41;;;5.11;90.97
79586;BME280;69054;50.866;4.636;2023-04-25T03:07:39;100823.84;;;5.09;91.20
79586;BME280;69054;50.866;4.636;2023-04-25T03:10:08;100821.28;;;5.08;90.95
79586;BME280;69054;50.866;4.636;2023-04-25T03:12:33;100817.75;;;5.07;91.53
79586;BME280;69054;50.866;4.636;2023-04-25T03:14:59;100826.41;;;5.11;92.11
79586;BME280;69054;50.866;4.636;2023-04-25T03:17:25;100828.25;;;5.10;91.61
79586;BME280;69054;50.866;4.636;2023-04-25T03:19:50;100831.97;;;5.09;91.40
79586;BME280;69054;50.866;4.636;2023-04-25T03:22:15;100836.38;;;5.10;92.04
79586;BME280;69054;50.866;4.636;2023-04-25T03:24:42;100835.75;;;5.17;92.15
79586;BME280;69054;50.866;4.636;2023-04-25T03:27:08;100835.91;;;5.15;91.40
79586;BME280;69054;50.866;4.636;2023-04-25T03:29:33;100832.34;;;5.14;91.42
79586;BME280;69054;50.866;4.636;2023-04-25T03:31:59;100834.19;;;5.14;89.70
79586;BME280;69054;50.866;4.636;2023-04-25T03:34:24;100830.97;;;5.10;89.55
79586;BME280;69054;50.866;4.636;2023-04-25T03:36:51;100836.72;;;5.07;89.75
79586;BME280;69054;50.866;4.636;2023-04-25T03:39:16;100833.69;;;5.10;89.53
79586;BME280;69054;50.866;4.636;2023-04-25T03:41:42;100842.84;;;5.18;88.43
79586;BME280;69054;50.866;4.636;2023-04-25T03:44:07;100841.06;;;5.26;85.69
79586;BME280;69054;50.866;4.636;2023-04-25T03:46:32;100847.34;;;5.27;84.77
79586;BME280;69054;50.866;4.636;2023-04-25T03:48:58;100841.53;;;5.22;85.14
79586;BME280;69054;50.866;4.636;2023-04-25T03:51:24;100849.97;;;5.19;84.90
79586;BME280;69054;50.866;4.636;2023-04-25T03:53:51;100849.63;;;5.13;84.69
79586;BME280;69054;50.866;4.636;2023-04-25T03:56:16;100857.66;;;5.05;84.71
79586;BME280;69054;50.866;4.636;2023-04-25T03:58:42;100861.56;;;5.03;85.07
79586;BME280;69054;50.866;4.636;2023-04-25T04:01:07;100864.72;;;4.98;85.30
79586;BME280;69054;50.866;4.636;2023-04-25T04:03:36;100866.38;;;4.91;86.39
79586;BME280;69054;50.866;4.636;2023-04-25T04:06:05;100863.25;;;4.86;85.45
79586;BME280;69054;50.866;4.636;2023-04-25T04:08:32;100865.44;;;4.82;85.26
79586;BME280;69054;50.866;4.636;2023-04-25T04:10:58;100865.34;;;4.74;86.46
79586;BME280;69054;50.866;4.636;2023-04-25T04:13:26;100866.84;;;4.68;85.49
79586;BME280;69054;50.866;4.636;2023-04-25T04:15:51;100861.19;;;4.61;86.32
79586;BME280;69054;50.866;4.636;2023-04-25T04:18:17;100869.00;;;4.65;84.98
79586;BME280;69054;50.866;4.636;2023-04-25T04:20:42;100871.84;;;4.63;85.49
79586;BME280;69054;50.866;4.636;2023-04-25T04:23:08;100875.44;;;4.64;87.45
79586;BME280;69054;50.866;4.636;2023-04-25T04:25:33;100873.34;;;4.57;85.79
79586;BME280;69054;50.866;4.636;2023-04-25T04:27:59;100872.47;;;4.57;86.11
79586;BME280;69054;50.866;4.636;2023-04-25T04:30:26;100878.91;;;4.56;87.46
79586;BME280;69054;50.866;4.636;2023-04-25T04:32:55;100880.75;;;4.55;87.98
79586;BME280;69054;50.866;4.636;2023-04-25T04:35:21;100884.34;;;4.56;86.13
79586;BME280;69054;50.866;4.636;2023-04-25T04:37:46;100882.09;;;4.51;87.33
79586;BME280;69054;50.866;4.636;2023-04-25T04:40:13;100890.38;;;4.50;87.43
79586;BME280;69054;50.866;4.636;2023-04-25T04:42:43;100897.47;;;4.51;88.12
79586;BME280;69054;50.866;4.636;2023-04-25T04:45:11;100894.75;;;4.51;88.25
79586;BME280;69054;50.866;4.636;2023-04-25T04:47:37;100891.91;;;4.52;88.66
79586;BME280;69054;50.866;4.636;2023-04-25T04:50:05;100898.72;;;4.56;88.84
79586;BME280;69054;50.866;4.636;2023-04-25T04:52:34;100901.25;;;4.58;88.80
79586;BME280;69054;50.866;4.636;2023-04-25T04:55:00;100908.91;;;4.62;87.67
79586;BME280;69054;50.866;4.636;2023-04-25T04:57:25;100901.78;;;4.61;86.97
79586;BME280;69054;50.866;4.636;2023-04-25T04:59:51;100903.66;;;4.61;87.53
79586;BME280;69054;50.866;4.636;2023-04-25T05:02:17;100914.63;;;4.59;84.97
79586;BME280;69054;50.866;4.636;2023-04-25T05:04:42;100916.50;;;4.59;86.56
79586;BME280;69054;50.866;4.636;2023-04-25T05:07:08;100919.06;;;4.60;85.78
79586;BME280;69054;50.866;4.636;2023-04-25T05:09:33;100927.72;;;4.64;85.60
79586;BME280;69054;50.866;4.636;2023-04-25T05:11:59;100928.03;;;4.61;86.48
79586;BME280;69054;50.866;4.636;2023-04-25T05:14:26;100938.69;;;4.62;86.92
79586;BME280;69054;50.866;4.636;2023-04-25T05:16:51;100942.25;;;4.63;87.90
79586;BME280;69054;50.866;4.636;2023-04-25T05:19:17;100947.66;;;4.63;88.76
79586;BME280;69054;50.866;4.636;2023-04-25T05:21:42;100943.78;;;4.66;86.92
79586;BME280;69054;50.866;4.636;2023-04-25T05:24:08;100949.22;;;4.66;88.50
79586;BME280;69054;50.866;4.636;2023-04-25T05:26:34;100957.34;;;4.66;88.42
79586;BME280;69054;50.866;4.636;2023-04-25T05:28:59;100953.63;;;4.67;86.76
79586;BME280;69054;50.866;4.636;2023-04-25T05:31:25;100958.19;;;4.66;87.55
79586;BME280;69054;50.866;4.636;2023-04-25T05:33:50;100964.31;;;4.68;87.12
79586;BME280;69054;50.866;4.636;2023-04-25T05:36:16;100962.97;;;4.72;86.36
79586;BME280;69054;50.866;4.636;2023-04-25T05:38:41;100961.28;;;4.71;87.35
79586;BME280;69054;50.866;4.636;2023-04-25T05:41:07;100966.41;;;4.74;87.89
79586;BME280;69054;50.866;4.636;2023-04-25T05:43:32;100963.38;;;4.77;87.72
79586;BME280;69054;50.866;4.636;2023-04-25T05:45:58;100965.63;;;4.82;87.50
79586;BME280;69054;50.866;4.636;2023-04-25T05:48:24;100966.88;;;4.88;88.22
79586;BME280;69054;50.866;4.636;2023-04-25T05:50:49;100980.47;;;4.96;87.85
79586;BME280;69054;50.866;4.636;2023-04-25T05:53:16;100985.59;;;4.99;88.33
79586;BME280;69054;50.866;4.636;2023-04-25T05:55:42;100983.59;;;5.01;87.78
79586;BME280;69054;50.866;4.636;2023-04-25T05:58:07;100983.59;;;5.01;86.65
79586;BME280;69054;50.866;4.636;2023-04-25T06:00:33;100977.63;;;4.97;88.20
79586;BME280;69054;50.866;4.636;2023-04-25T06:02:58;100982.56;;;5.02;88.44
79586;BME280;69054;50.866;4.636;2023-04-25T06:05:24;100987.38;;;5.08;89.38
79586;BME280;69054;50.866;4.636;2023-04-25T06:07:50;100981.47;;;5.13;88.64
79586;BME280;69054;50.866;4.636;2023-04-25T06:10:15;100990.00;;;5.18;88.19
79586;BME280;69054;50.866;4.636;2023-04-25T06:12:41;100994.56;;;5.18;86.72
79586;BME280;69054;50.866;4.636;2023-04-25T06:15:07;100997.13;;;5.19;87.19
79586;BME280;69054;50.866;4.636;2023-04-25T06:17:33;100997.13;;;5.19;86.98
79586;BME280;69054;50.866;4.636;2023-04-25T06:19:58;100995.13;;;5.21;87.79
79586;BME280;69054;50.866;4.636;2023-04-25T06:22:24;100998.97;;;5.37;87.68
79586;BME280;69054;50.866;4.636;2023-04-25T06:24:49;100999.44;;;5.50;87.78
79586;BME280;69054;50.866;4.636;2023-04-25T06:27:14;100996.44;;;5.61;87.38
79586;BME280;69054;50.866;4.636;2023-04-25T06:29:40;100999.25;;;5.69;85.18
79586;BME280;69054;50.866;4.636;2023-04-25T06:32:05;101001.47;;;5.74;84.79
79586;BME280;69054;50.866;4.636;2023-04-25T06:34:31;100998.59;;;5.76;83.53
79586;BME280;69054;50.866;4.636;2023-04-25T06:36:56;101011.03;;;5.86;85.47
79586;BME280;69054;50.866;4.636;2023-04-25T06:39:21;101007.91;;;5.99;84.61
79586;BME280;69054;50.866;4.636;2023-04-25T06:41:48;101015.00;;;6.18;83.56
79586;BME280;69054;50.866;4.636;2023-04-25T06:44:14;101015.06;;;6.35;82.41
79586;BME280;69054;50.866;4.636;2023-04-25T06:46:40;101025.34;;;6.57;81.68
79586;BME280;69054;50.866;4.636;2023-04-25T06:49:05;101029.63;;;6.68;80.75
79586;BME280;69054;50.866;4.636;2023-04-25T06:51:31;101030.19;;;6.80;80.68
79586;BME280;69054;50.866;4.636;2023-04-25T06:53:56;101028.69;;;6.94;78.63
79586;BME280;69054;50.866;4.636;2023-04-25T06:56:22;101036.38;;;7.15;79.44
79586;BME280;69054;50.866;4.636;2023-04-25T06:58:48;101038.09;;;7.24;78.53
79586;BME280;69054;50.866;4.636;2023-04-25T07:01:13;101044.50;;;6.99;76.87
79586;BME280;69054;50.866;4.636;2023-04-25T07:03:39;101054.66;;;6.88;76.91
79586;BME280;69054;50.866;4.636;2023-04-25T07:06:05;101049.56;;;6.85;76.71
79586;BME280;69054;50.866;4.636;2023-04-25T07:08:30;101056.31;;;6.81;77.08
79586;BME280;69054;50.866;4.636;2023-04-25T07:10:55;101058.25;;;6.89;77.61
79586;BME280;69054;50.866;4.636;2023-04-25T07:13:24;101065.41;;;6.98;78.09
79586;BME280;69054;50.866;4.636;2023-04-25T07:15:49;101063.53;;;7.07;77.28
79586;BME280;69054;50.866;4.636;2023-04-25T07:18:15;101062.88;;;7.13;78.26
79586;BME280;69054;50.866;4.636;2023-04-25T07:20:41;101063.22;;;7.18;75.96
79586;BME280;69054;50.866;4.636;2023-04-25T07:23:06;101069.34;;;7.20;75.13
79586;BME280;69054;50.866;4.636;2023-04-25T07:25:32;101067.31;;;7.22;74.64
79586;BME280;69054;50.866;4.636;2023-04-25T07:27:57;101066.78;;;7.19;75.12
79586;BME280;69054;50.866;4.636;2023-04-25T07:30:23;101074.44;;;7.23;75.64
79586;BME280;69054;50.866;4.636;2023-04-25T07:32:49;101075.97;;;7.34;75.85
79586;BME280;69054;50.866;4.636;2023-04-25T07:35:16;101071.59;;;7.41;75.47
79586;BME280;69054;50.866;4.636;2023-04-25T07:37:41;101073.63;;;7.47;75.26
79586;BME280;69054;50.866;4.636;2023-04-25T07:40:07;101076.19;;;7.57;73.72
79586;BME280;69054;50.866;4.636;2023-04-25T07:42:34;101077.53;;;7.78;73.75
79586;BME280;69054;50.866;4.636;2023-04-25T07:45:00;101084.69;;;8.04;74.03
79586;BME280;69054;50.866;4.636;2023-04-25T07:47:26;101077.72;;;8.17;72.40
79586;BME280;69054;50.866;4.636;2023-04-25T07:49:51;101084.94;;;8.42;73.98
79586;BME280;69054;50.866;4.636;2023-04-25T07:52:17;101089.75;;;8.48;71.49
79586;BME280;69054;50.866;4.636;2023-04-25T07:54:42;101091.94;;;8.52;71.63
79586;BME280;69054;50.866;4.636;2023-04-25T07:57:07;101092.50;;;8.87;69.34
79586;BME280;69054;50.866;4.636;2023-04-25T07:59:33;101098.91;;;9.03;69.09
79586;BME280;69054;50.866;4.636;2023-04-25T08:02:00;101092.56;;;9.34;68.04
79586;BME280;69054;50.866;4.636;2023-04-25T08:04:25;101099.75;;;9.81;66.50
79586;BME280;69054;50.866;4.636;2023-04-25T08:06:53;101102.09;;;10.07;62.59
79586;BME280;69054;50.866;4.636;2023-04-25T08:09:19;101103.97;;;10.22;62.86
79586;BME280;69054;50.866;4.636;2023-04-25T08:11:45;101107.94;;;9.81;63.57
79586;BME280;69054;50.866;4.636;2023-04-25T08:14:11;101112.91;;;9.31;62.25
79586;BME280;69054;50.866;4.636;2023-04-25T08:16:37;101125.06;;;8.73;64.17
79586;BME280;69054;50.866;4.636;2023-04-25T08:19:04;101124.81;;;8.34;65.68
79586;BME280;69054;50.866;4.636;2023-04-25T08:21:30;101133.34;;;7.98;68.50
79586;BME280;69054;50.866;4.636;2023-04-25T08:23:56;101138.44;;;7.77;70.67
79586;BME280;69054;50.866;4.636;2023-04-25T08:26:23;101151.31;;;7.42;70.74
79586;BME280;69054;50.866;4.636;2023-04-25T08:28:49;101154.47;;;7.21;72.08
79586;BME280;69054;50.866;4.636;2023-04-25T08:31:14;101150.66;;;7.05;73.95
79586;BME280;69054;50.866;4.636;2023-04-25T08:33:40;101162.66;;;6.95;73.70
79586;BME280;69054;50.866;4.636;2023-04-25T08:36:05;101157.16;;;6.78;72.57
79586;BME280;69054;50.866;4.636;2023-04-25T08:38:31;101168.69;;;6.46;72.59
79586;BME280;69054;50.866;4.636;2023-04-25T08:40:56;101171.88;;;6.41;74.30
79586;BME280;69054;50.866;4.636;2023-04-25T08:43:23;101174.53;;;6.33;71.93
79586;BME280;69054;50.866;4.636;2023-04-25T08:45:48;101179.25;;;6.31;73.22
79586;BME280;69054;50.866;4.636;2023-04-25T08:48:15;101177.63;;;6.38;70.13
79586;BME280;69054;50.866;4.636;2023-04-25T08:53:12;101180.19;;;7.00;71.72
79586;BME280;69054;50.866;4.636;2023-04-25T08:55:41;101176.41;;;7.36;68.68
79586;BME280;69054;50.866;4.636;2023-04-25T08:58:09;101181.47;;;7.81;70.60
79586;BME280;69054;50.866;4.636;2023-04-25T09:00:35;101188.94;;;8.37;65.07
79586;BME280;69054;50.866;4.636;2023-04-25T09:03:01;101188.97;;;9.18;60.79
79586;BME280;69054;50.866;4.636;2023-04-25T09:05:28;101194.28;;;10.20;60.02
79586;BME280;69054;50.866;4.636;2023-04-25T09:07:53;101189.09;;;11.68;53.53
79586;BME280;69054;50.866;4.636;2023-04-25T09:10:19;101201.63;;;13.89;47.97
79586;BME280;69054;50.866;4.636;2023-04-25T09:12:44;101199.72;;;15.16;41.62
79586;BME280;69054;50.866;4.636;2023-04-25T09:15:12;101207.47;;;16.23;41.09
79586;BME280;69054;50.866;4.636;2023-04-25T09:17:37;101215.69;;;16.30;37.55
79586;BME280;69054;50.866;4.636;2023-04-25T09:20:15;101227.03;;;16.97;36.09
79586;BME280;69054;50.866;4.636;2023-04-25T09:22:41;101215.06;;;17.59;34.23
79586;BME280;69054;50.866;4.636;2023-04-25T09:25:09;101229.41;;;16.11;37.30
79586;BME280;69054;50.866;4.636;2023-04-25T09:27:35;101226.50;;;13.32;40.78
79586;BME280;69054;50.866;4.636;2023-04-25T09:30:00;101218.81;;;11.71;45.57
79586;BME280;69054;50.866;4.636;2023-04-25T09:32:26;101231.19;;;10.62;49.23
79586;BME280;69054;50.866;4.636;2023-04-25T09:34:56;101235.91;;;9.76;54.36
79586;BME280;69054;50.866;4.636;2023-04-25T09:39:52;101234.91;;;8.57;59.04
79586;BME280;69054;50.866;4.636;2023-04-25T09:42:18;101238.31;;;8.26;61.07
79586;BME280;69054;50.866;4.636;2023-04-25T09:44:47;101236.00;;;7.72;61.97
79586;BME280;69054;50.866;4.636;2023-04-25T09:47:15;101239.72;;;7.54;62.87
79586;BME280;69054;50.866;4.636;2023-04-25T09:49:42;101240.22;;;7.50;63.66
79586;BME280;69054;50.866;4.636;2023-04-25T09:52:09;101238.50;;;7.57;64.83
79586;BME280;69054;50.866;4.636;2023-04-25T09:54:34;101245.22;;;7.79;62.87
79586;BME280;69054;50.866;4.636;2023-04-25T09:57:11;101246.78;;;8.14;64.00
79586;BME280;69054;50.866;4.636;2023-04-25T09:59:39;101250.09;;;8.51;61.22
79586;BME280;69054;50.866;4.636;2023-04-25T10:02:07;101256.00;;;9.04;60.83
79586;BME280;69054;50.866;4.636;2023-04-25T10:04:34;101261.81;;;9.40;57.70
79586;BME280;69054;50.866;4.636;2023-04-25T10:07:01;101267.19;;;11.04;51.57
79586;BME280;69054;50.866;4.636;2023-04-25T10:09:28;101262.97;;;12.41;46.46
79586;BME280;69054;50.866;4.636;2023-04-25T10:11:59;101261.94;;;14.30;42.05
79586;BME280;69054;50.866;4.636;2023-04-25T10:14:25;101264.38;;;15.66;37.77
79586;BME280;69054;50.866;4.636;2023-04-25T10:16:51;101260.84;;;15.97;37.05
79586;BME280;69054;50.866;4.636;2023-04-25T10:19:21;101259.50;;;17.76;31.83
79586;BME280;69054;50.866;4.636;2023-04-25T10:21:51;101267.91;;;18.84;32.74
79586;BME280;69054;50.866;4.636;2023-04-25T10:24:17;101259.31;;;18.08;31.01
79586;BME280;69054;50.866;4.636;2023-04-25T10:26:44;101264.06;;;16.26;37.14
79586;BME280;69054;50.866;4.636;2023-04-25T10:29:10;101268.72;;;14.54;38.99
79586;BME280;69054;50.866;4.636;2023-04-25T10:31:44;101259.44;;;12.69;41.85
79586;BME280;69054;50.866;4.636;2023-04-25T10:34:10;101265.41;;;11.93;43.05
79586;BME280;69054;50.866;4.636;2023-04-25T10:36:35;101271.22;;;11.68;43.57
79586;BME280;69054;50.866;4.636;2023-04-25T10:39:05;101266.63;;;11.24;47.94
79586;BME280;69054;50.866;4.636;2023-04-25T10:42:06;101272.44;;;10.91;45.86
79586;BME280;69054;50.866;4.636;2023-04-25T10:44:33;101276.03;;;11.06;45.77
79586;BME280;69054;50.866;4.636;2023-04-25T10:47:01;101266.59;;;12.70;43.61
79586;BME280;69054;50.866;4.636;2023-04-25T10:49:41;101274.66;;;15.25;35.38
79586;BME280;69054;50.866;4.636;2023-04-25T10:52:27;101269.19;;;17.48;31.74
79586;BME280;69054;50.866;4.636;2023-04-25T10:54:57;101273.94;;;18.81;29.33
79586;BME280;69054;50.866;4.636;2023-04-25T11:00:01;101270.69;;;16.18;33.15
79586;BME280;69054;50.866;4.636;2023-04-25T11:02:41;101271.66;;;15.33;37.33
79586;BME280;69054;50.866;4.636;2023-04-25T11:05:08;101272.56;;;14.67;36.54
79586;BME280;69054;50.866;4.636;2023-04-25T11:10:08;101271.75;;;13.36;41.23
79586;BME280;69054;50.866;4.636;2023-04-25T11:12:33;101277.38;;;13.00;41.39
79586;BME280;69054;50.866;4.636;2023-04-25T11:15:04;101269.81;;;12.30;42.04
79586;BME280;69054;50.866;4.636;2023-04-25T11:17:30;101272.63;;;11.64;41.78
79586;BME280;69054;50.866;4.636;2023-04-25T11:19:56;101277.44;;;11.02;44.19
79586;BME280;69054;50.866;4.636;2023-04-25T11:22:22;101283.28;;;10.61;47.93
79586;BME280;69054;50.866;4.636;2023-04-25T11:24:47;101285.97;;;9.60;53.58
79586;BME280;69054;50.866;4.636;2023-04-25T11:27:13;101291.22;;;9.14;57.60
79586;BME280;69054;50.866;4.636;2023-04-25T11:29:38;101295.19;;;8.86;58.55
79586;BME280;69054;50.866;4.636;2023-04-25T11:32:04;101287.88;;;8.46;59.65
79586;BME280;69054;50.866;4.636;2023-04-25T11:34:31;101295.03;;;8.47;62.50
79586;BME280;69054;50.866;4.636;2023-04-25T11:36:57;101298.03;;;8.35;61.51
79586;BME280;69054;50.866;4.636;2023-04-25T11:39:26;101301.47;;;8.38;61.55
79586;BME280;69054;50.866;4.636;2023-04-25T11:41:53;101299.28;;;8.58;61.67
79586;BME280;69054;50.866;4.636;2023-04-25T11:44:19;101295.16;;;8.95;nan
79586;BME280;69054;50.866;4.636;2023-04-25T11:46:45;101298.31;;;9.39;59.79
79586;BME280;69054;50.866;4.636;2023-04-25T11:49:11;101297.38;;;9.95;55.07
79586;BME280;69054;50.866;4.636;2023-04-25T11:51:41;101300.00;;;12.15;49.61
79586;BME280;69054;50.866;4.636;2023-04-25T11:54:07;101295.19;;;13.39;46.46
79586;BME280;69054;50.866;4.636;2023-04-25T11:56:33;101306.69;;;13.27;47.18
79586;BME280;69054;50.866;4.636;2023-04-25T11:58:59;101310.06;;;12.73;45.03
79586;BME280;69054;50.866;4.636;2023-04-25T12:01:36;101310.94;;;12.52;47.48
79586;BME280;69054;50.866;4.636;2023-04-25T12:04:12;101305.56;;;11.85;47.04
79586;BME280;69054;50.866;4.636;2023-04-25T12:06:39;101306.97;;;11.22;47.20
79586;BME280;69054;50.866;4.636;2023-04-25T12:09:11;101305.00;;;11.15;44.54
79586;BME280;69054;50.866;4.636;2023-04-25T12:11:47;101301.19;;;12.28;43.01
79586;BME280;69054;50.866;4.636;2023-04-25T12:14:24;101300.25;;;12.85;41.21
79586;BME280;69054;50.866;4.636;2023-04-25T12:16:50;101312.47;;;15.63;36.35
79586;BME280;69054;50.866;4.636;2023-04-25T12:19:17;101313.56;;;17.90;31.23
79586;BME280;69054;50.866;4.636;2023-04-25T12:21:43;101319.97;;;18.52;30.97
79586;BME280;69054;50.866;4.636;2023-04-25T12:24:27;101319.50;;;18.55;28.80
79586;BME280;69054;50.866;4.636;2023-04-25T12:29:25;101315.34;;;14.96;34.45
79586;BME280;69054;50.866;4.636;2023-04-25T12:31:52;101316.56;;;14.60;34.83
79586;BME280;69054;50.866;4.636;2023-04-25T12:34:19;101319.63;;;14.17;37.38
79586;BME280;69054;50.866;4.636;2023-04-25T12:36:44;101318.16;;;15.82;33.02
79586;BME280;69054;50.866;4.636;2023-04-25T12:39:30;101322.56;;;15.89;33.10
79586;BME280;69054;50.866;4.636;2023-04-25T12:41:56;101324.44;;;15.10;35.55
79586;BME280;69054;50.866;4.636;2023-04-25T12:44:24;101324.31;;;14.30;35.92
79586;BME280;69054;50.866;4.636;2023-04-25T12:46:50;101324.28;;;13.68;35.66
79586;BME280;69054;50.866;4.636;2023-04-25T12:49:15;101334.47;;;13.39;38.87
79586;BME280;69054;50.866;4.636;2023-04-25T12:51:40;101326.97;;;13.26;37.61
79586;BME280;69054;50.866;4.636;2023-04-25T12:54:07;101329.22;;;13.16;38.29
79586;BME280;69054;50.866;4.636;2023-04-25T12:56:33;101339.53;;;13.77;36.82
79586;BME280;69054;50.866;4.636;2023-04-25T12:58:59;101325.50;;;16.08;34.16
79586;BME280;69054;50.866;4.636;2023-04-25T13:01:25;101324.50;;;17.79;29.08
79586;BME280;69054;50.866;4.636;2023-04-25T13:03:52;101324.44;;;17.85;27.11
79586;BME280;69054;50.866;4.636;2023-04-25T13:06:18;101324.13;;;18.42;25.48